sensor_id;sensor_type;location;lat;lon;timestamp;P1;durP1;ratioP1;P2;durP2;ratioP2
43216;SDS011;71549;42.686;23.300;2023-12-29T00:00:48;18.75;;;16.95;;
43216;SDS011;71549;42.686;23.300;2023-12-29T00:02:49;20.10;;;18.20;;
43216;SDS011;71549;42.686;23.300;2023-12-29T00:04:50;19.35;;;17.23;;
43216;SDS011;71549;42.686;23.300;2023-12-29T00:06:51;20.30;;;18.38;;
43216;SDS011;71549;42.686;23.300;2023-12-29T00:08:51;19.65;;;17.65;;
43216;SDS011;71549;42.686;23.300;2023-12-29T00:10:52;21.10;;;19.05;;
43216;SDS011;71549;42.686;23.300;2023-12-29T00:12:52;19.25;;;17.35;;
43216;SDS011;71549;42.686;23.300;2023-12-29T00:14:53;19.13;;;17.35;;
43216;SDS011;71549;42.686;23.300;2023-12-29T00:16:53;20.00;;;17.92;;
43216;SDS011;71549;42.686;23.300;2023-12-29T00:18:57;19.50;;;17.60;;
43216;SDS011;71549;42.686;23.300;2023-12-29T00:20:57;19.15;;;17.35;;
43216;SDS011;71549;42.686;23.300;2023-12-29T00:22:59;19.65;;;17.85;;
43216;SDS011;71549;42.686;23.300;2023-12-29T00:25:00;19.92;;;17.90;;
43216;SDS011;71549;42.686;23.300;2023-12-29T00:27:01;20.83;;;18.88;;
43216;SDS011;71549;42.686;23.300;2023-12-29T00:29:03;19.70;;;17.80;;
43216;SDS011;71549;42.686;23.300;2023-12-29T00:31:06;18.80;;;16.90;;
43216;SDS011;71549;42.686;23.300;2023-12-29T00:33:07;19.25;;;17.45;;
43216;SDS011;71549;42.686;23.300;2023-12-29T00:35:07;19.65;;;17.63;;
43216;SDS011;71549;42.686;23.300;2023-12-29T00:37:08;20.83;;;18.83;;
43216;SDS011;71549;42.686;23.300;2023-12-29T00:39:09;19.50;;;17.63;;
43216;SDS011;71549;42.686;23.300;2023-12-29T00:41:09;20.48;;;18.38;;
43216;SDS011;71549;42.686;23.300;2023-12-29T00:43:10;19.15;;;17.30;;
43216;SDS011;71549;42.686;23.300;2023-12-29T00:45:10;19.05;;;17.35;;
43216;SDS011;71549;42.686;23.300;2023-12-29T00:47:12;19.65;;;17.85;;
43216;SDS011;71549;42.686;23.300;2023-12-29T00:49:12;19.10;;;17.33;;
43216;SDS011;71549;42.686;23.300;2023-12-29T00:51:13;20.33;;;18.27;;
43216;SDS011;71549;42.686;23.300;2023-12-29T00:53:13;20.25;;;18.25;;
43216;SDS011;71549;42.686;23.300;2023-12-29T00:55:14;19.63;;;17.67;;
43216;SDS011;71549;42.686;23.300;2023-12-29T00:57:14;19.70;;;17.73;;
43216;SDS011;71549;42.686;23.300;2023-12-29T00:59:18;20.50;;;18.42;;
43216;SDS011;71549;42.686;23.300;2023-12-29T01:01:19;19.67;;;17.88;;
43216;SDS011;71549;42.686;23.300;2023-12-29T01:03:20;19.23;;;17.38;;
43216;SDS011;71549;42.686;23.300;2023-12-29T01:05:21;19.90;;;17.80;;
43216;SDS011;71549;42.686;23.300;2023-12-29T01:07:21;19.42;;;17.63;;
43216;SDS011;71549;42.686;23.300;2023-12-29T01:09:22;19.05;;;17.35;;
43216;SDS011;71549;42.686;23.300;2023-12-29T01:11:23;21.00;;;18.90;;
43216;SDS011;71549;42.686;23.300;2023-12-29T01:13:23;20.27;;;18.42;;
43216;SDS011;71549;42.686;23.300;2023-12-29T01:15:24;19.15;;;17.42;;
43216;SDS011;71549;42.686;23.300;2023-12-29T01:17:24;21.13;;;19.08;;
43216;SDS011;71549;42.686;23.300;2023-12-29T01:19:28;20.03;;;18.07;;
43216;SDS011;71549;42.686;23.300;2023-12-29T01:21:29;19.33;;;17.42;;
43216;SDS011;71549;42.686;23.300;2023-12-29T01:23:33;20.10;;;18.17;;
43216;SDS011;71549;42.686;23.300;2023-12-29T01:25:34;21.25;;;19.08;;
43216;SDS011;71549;42.686;23.300;2023-12-29T01:27:35;20.85;;;18.75;;
43216;SDS011;71549;42.686;23.300;2023-12-29T01:29:36;20.50;;;18.60;;
43216;SDS011;71549;42.686;23.300;2023-12-29T01:31:36;20.05;;;18.15;;
43216;SDS011;71549;42.686;23.300;2023-12-29T01:33:38;19.70;;;17.90;;
43216;SDS011;71549;42.686;23.300;2023-12-29T01:35:38;20.00;;;18.20;;
43216;SDS011;71549;42.686;23.300;2023-12-29T01:37:39;20.30;;;18.30;;
43216;SDS011;71549;42.686;23.300;2023-12-29T01:39:40;21.10;;;19.17;;
43216;SDS011;71549;42.686;23.300;2023-12-29T01:41:40;20.33;;;18.38;;
43216;SDS011;71549;42.686;23.300;2023-12-29T01:46:31;21.25;;;19.15;;
43216;SDS011;71549;42.686;23.300;2023-12-29T01:48:33;19.80;;;17.77;;
43216;SDS011;71549;42.686;23.300;2023-12-29T01:50:35;20.98;;;18.92;;
43216;SDS011;71549;42.686;23.300;2023-12-29T01:52:38;21.83;;;19.73;;
43216;SDS011;71549;42.686;23.300;2023-12-29T01:54:40;21.70;;;19.55;;
43216;SDS011;71549;42.686;23.300;2023-12-29T01:58:44;20.20;;;18.15;;
43216;SDS011;71549;42.686;23.300;2023-12-29T02:00:46;19.88;;;17.98;;
43216;SDS011;71549;42.686;23.300;2023-12-29T02:02:46;19.83;;;17.92;;
43216;SDS011;71549;42.686;23.300;2023-12-29T02:04:47;19.77;;;17.92;;
43216;SDS011;71549;42.686;23.300;2023-12-29T02:06:48;20.33;;;18.23;;
43216;SDS011;71549;42.686;23.300;2023-12-29T02:08:48;20.35;;;18.48;;
43216;SDS011;71549;42.686;23.300;2023-12-29T02:10:51;20.85;;;18.80;;
43216;SDS011;71549;42.686;23.300;2023-12-29T02:12:53;21.33;;;19.33;;
43216;SDS011;71549;42.686;23.300;2023-12-29T02:14:57;20.85;;;18.95;;
43216;SDS011;71549;42.686;23.300;2023-12-29T02:17:07;21.20;;;19.02;;
43216;SDS011;71549;42.686;23.300;2023-12-29T02:21:39;21.85;;;19.80;;
43216;SDS011;71549;42.686;23.300;2023-12-29T02:23:40;21.58;;;19.58;;
43216;SDS011;71549;42.686;23.300;2023-12-29T02:25:40;22.98;;;20.63;;
43216;SDS011;71549;42.686;23.300;2023-12-29T02:27:49;21.08;;;18.98;;
43216;SDS011;71549;42.686;23.300;2023-12-29T02:32:01;21.23;;;19.23;;
43216;SDS011;71549;42.686;23.300;2023-12-29T02:34:04;21.95;;;19.80;;
43216;SDS011;71549;42.686;23.300;2023-12-29T02:36:08;21.77;;;19.60;;
43216;SDS011;71549;42.686;23.300;2023-12-29T02:38:16;20.98;;;18.90;;
43216;SDS011;71549;42.686;23.300;2023-12-29T02:40:17;21.75;;;19.52;;
43216;SDS011;71549;42.686;23.300;2023-12-29T02:42:19;21.90;;;19.70;;
43216;SDS011;71549;42.686;23.300;2023-12-29T02:44:20;22.60;;;20.48;;
43216;SDS011;71549;42.686;23.300;2023-12-29T02:46:21;21.92;;;19.73;;
43216;SDS011;71549;42.686;23.300;2023-12-29T02:48:22;22.40;;;20.30;;
43216;SDS011;71549;42.686;23.300;2023-12-29T02:50:22;21.58;;;19.40;;
43216;SDS011;71549;42.686;23.300;2023-12-29T02:52:23;21.08;;;19.08;;
43216;SDS011;71549;42.686;23.300;2023-12-29T02:54:24;21.80;;;19.70;;
43216;SDS011;71549;42.686;23.300;2023-12-29T02:56:25;21.02;;;19.00;;
43216;SDS011;71549;42.686;23.300;2023-12-29T02:58:25;21.50;;;19.60;;
43216;SDS011;71549;42.686;23.300;2023-12-29T03:00:26;23.55;;;21.23;;
43216;SDS011;71549;42.686;23.300;2023-12-29T03:02:27;22.17;;;20.00;;
43216;SDS011;71549;42.686;23.300;2023-12-29T03:04:28;22.33;;;20.23;;
43216;SDS011;71549;42.686;23.300;2023-12-29T03:06:28;21.08;;;19.10;;
43216;SDS011;71549;42.686;23.300;2023-12-29T03:08:34;21.80;;;19.73;;
43216;SDS011;71549;42.686;23.300;2023-12-29T03:10:35;21.63;;;19.52;;
43216;SDS011;71549;42.686;23.300;2023-12-29T03:12:36;22.52;;;20.30;;
43216;SDS011;71549;42.686;23.300;2023-12-29T03:14:36;22.05;;;19.98;;
43216;SDS011;71549;42.686;23.300;2023-12-29T03:16:37;21.38;;;19.38;;
43216;SDS011;71549;42.686;23.300;2023-12-29T03:18:37;22.48;;;20.25;;
43216;SDS011;71549;42.686;23.300;2023-12-29T03:20:40;22.75;;;20.52;;
43216;SDS011;71549;42.686;23.300;2023-12-29T03:22:41;20.92;;;18.90;;
43216;SDS011;71549;42.686;23.300;2023-12-29T03:24:42;22.70;;;20.50;;
43216;SDS011;71549;42.686;23.300;2023-12-29T03:26:42;22.33;;;20.23;;
43216;SDS011;71549;42.686;23.300;2023-12-29T03:28:45;23.17;;;20.67;;
43216;SDS011;71549;42.686;23.300;2023-12-29T03:30:45;23.63;;;21.40;;
43216;SDS011;71549;42.686;23.300;2023-12-29T03:32:46;21.80;;;19.60;;
43216;SDS011;71549;42.686;23.300;2023-12-29T03:38:50;22.90;;;20.70;;
43216;SDS011;71549;42.686;23.300;2023-12-29T03:40:51;21.80;;;19.58;;
43216;SDS011;71549;42.686;23.300;2023-12-29T03:42:52;22.75;;;20.40;;
43216;SDS011;71549;42.686;23.300;2023-12-29T03:44:53;23.48;;;21.27;;
43216;SDS011;71549;42.686;23.300;2023-12-29T03:46:54;23.17;;;20.95;;
43216;SDS011;71549;42.686;23.300;2023-12-29T03:48:56;23.23;;;20.98;;
43216;SDS011;71549;42.686;23.300;2023-12-29T03:51:04;23.85;;;21.50;;
43216;SDS011;71549;42.686;23.300;2023-12-29T03:53:05;23.20;;;21.00;;
43216;SDS011;71549;42.686;23.300;2023-12-29T03:55:06;22.88;;;20.67;;
43216;SDS011;71549;42.686;23.300;2023-12-29T03:57:07;23.88;;;21.55;;
43216;SDS011;71549;42.686;23.300;2023-12-29T03:59:08;23.38;;;21.10;;
43216;SDS011;71549;42.686;23.300;2023-12-29T04:01:10;23.55;;;21.25;;
43216;SDS011;71549;42.686;23.300;2023-12-29T04:03:14;23.92;;;21.60;;
43216;SDS011;71549;42.686;23.300;2023-12-29T04:05:14;25.13;;;22.83;;
43216;SDS011;71549;42.686;23.300;2023-12-29T04:07:15;23.23;;;20.90;;
43216;SDS011;71549;42.686;23.300;2023-12-29T04:09:15;24.13;;;21.75;;
43216;SDS011;71549;42.686;23.300;2023-12-29T04:11:16;24.25;;;21.85;;
43216;SDS011;71549;42.686;23.300;2023-12-29T04:13:17;24.00;;;21.70;;
43216;SDS011;71549;42.686;23.300;2023-12-29T04:15:17;23.48;;;21.33;;
43216;SDS011;71549;42.686;23.300;2023-12-29T04:17:18;23.42;;;21.08;;
43216;SDS011;71549;42.686;23.300;2023-12-29T04:19:18;22.95;;;20.75;;
43216;SDS011;71549;42.686;23.300;2023-12-29T04:21:19;22.95;;;20.70;;
43216;SDS011;71549;42.686;23.300;2023-12-29T04:23:19;24.48;;;22.08;;
43216;SDS011;71549;42.686;23.300;2023-12-29T04:25:20;22.75;;;20.55;;
43216;SDS011;71549;42.686;23.300;2023-12-29T04:27:21;24.23;;;21.83;;
43216;SDS011;71549;42.686;23.300;2023-12-29T04:29:23;23.80;;;21.70;;
43216;SDS011;71549;42.686;23.300;2023-12-29T04:31:24;24.63;;;22.27;;
43216;SDS011;71549;42.686;23.300;2023-12-29T04:33:24;24.52;;;22.23;;
43216;SDS011;71549;42.686;23.300;2023-12-29T04:35:25;23.67;;;21.38;;
43216;SDS011;71549;42.686;23.300;2023-12-29T04:37:25;24.95;;;22.40;;
43216;SDS011;71549;42.686;23.300;2023-12-29T04:39:28;24.73;;;22.23;;
43216;SDS011;71549;42.686;23.300;2023-12-29T04:41:29;24.83;;;22.43;;
43216;SDS011;71549;42.686;23.300;2023-12-29T04:43:30;24.98;;;22.65;;
43216;SDS011;71549;42.686;23.300;2023-12-29T04:45:30;25.02;;;22.65;;
43216;SDS011;71549;42.686;23.300;2023-12-29T04:47:31;23.95;;;21.65;;
43216;SDS011;71549;42.686;23.300;2023-12-29T04:49:31;23.90;;;21.60;;
43216;SDS011;71549;42.686;23.300;2023-12-29T04:51:32;24.67;;;22.17;;
43216;SDS011;71549;42.686;23.300;2023-12-29T04:53:32;24.40;;;22.10;;
43216;SDS011;71549;42.686;23.300;2023-12-29T04:55:34;24.75;;;22.27;;
43216;SDS011;71549;42.686;23.300;2023-12-29T04:57:34;24.13;;;21.88;;
43216;SDS011;71549;42.686;23.300;2023-12-29T04:59:35;24.67;;;22.27;;
43216;SDS011;71549;42.686;23.300;2023-12-29T05:01:36;25.13;;;22.58;;
43216;SDS011;71549;42.686;23.300;2023-12-29T05:03:36;23.98;;;21.52;;
43216;SDS011;71549;42.686;23.300;2023-12-29T05:05:37;24.25;;;22.05;;
43216;SDS011;71549;42.686;23.300;2023-12-29T05:07:38;23.90;;;21.70;;
43216;SDS011;71549;42.686;23.300;2023-12-29T05:09:38;24.65;;;22.33;;
43216;SDS011;71549;42.686;23.300;2023-12-29T05:11:39;25.90;;;23.30;;
43216;SDS011;71549;42.686;23.300;2023-12-29T05:13:42;25.02;;;22.63;;
43216;SDS011;71549;42.686;23.300;2023-12-29T05:15:42;24.75;;;22.65;;
43216;SDS011;71549;42.686;23.300;2023-12-29T05:17:49;23.88;;;21.73;;
43216;SDS011;71549;42.686;23.300;2023-12-29T05:19:50;23.65;;;21.42;;
43216;SDS011;71549;42.686;23.300;2023-12-29T05:21:50;24.30;;;22.00;;
43216;SDS011;71549;42.686;23.300;2023-12-29T05:23:52;23.10;;;21.00;;
43216;SDS011;71549;42.686;23.300;2023-12-29T05:25:52;26.05;;;23.58;;
43216;SDS011;71549;42.686;23.300;2023-12-29T05:27:54;24.58;;;22.15;;
43216;SDS011;71549;42.686;23.300;2023-12-29T05:29:54;24.60;;;22.17;;
43216;SDS011;71549;42.686;23.300;2023-12-29T05:31:56;24.45;;;22.10;;
43216;SDS011;71549;42.686;23.300;2023-12-29T05:34:03;24.60;;;21.98;;
43216;SDS011;71549;42.686;23.300;2023-12-29T05:36:06;26.00;;;23.35;;
43216;SDS011;71549;42.686;23.300;2023-12-29T05:38:08;24.15;;;21.75;;
43216;SDS011;71549;42.686;23.300;2023-12-29T05:40:09;25.13;;;22.83;;
43216;SDS011;71549;42.686;23.300;2023-12-29T05:42:09;25.85;;;23.55;;
43216;SDS011;71549;42.686;23.300;2023-12-29T05:44:10;29.50;;;26.48;;
43216;SDS011;71549;42.686;23.300;2023-12-29T05:46:12;31.27;;;28.38;;
43216;SDS011;71549;42.686;23.300;2023-12-29T05:48:12;30.40;;;27.50;;
43216;SDS011;71549;42.686;23.300;2023-12-29T05:50:14;33.35;;;30.17;;
43216;SDS011;71549;42.686;23.300;2023-12-29T05:52:14;34.72;;;31.42;;
43216;SDS011;71549;42.686;23.300;2023-12-29T05:54:15;36.05;;;32.28;;
43216;SDS011;71549;42.686;23.300;2023-12-29T05:56:17;35.53;;;32.03;;
43216;SDS011;71549;42.686;23.300;2023-12-29T05:58:17;34.20;;;31.02;;
43216;SDS011;71549;42.686;23.300;2023-12-29T06:00:18;35.92;;;32.42;;
43216;SDS011;71549;42.686;23.300;2023-12-29T06:02:18;35.75;;;32.38;;
43216;SDS011;71549;42.686;23.300;2023-12-29T06:04:20;36.75;;;33.13;;
43216;SDS011;71549;42.686;23.300;2023-12-29T06:06:21;38.38;;;34.50;;
43216;SDS011;71549;42.686;23.300;2023-12-29T06:08:21;37.58;;;33.85;;
43216;SDS011;71549;42.686;23.300;2023-12-29T06:10:22;35.10;;;31.70;;
43216;SDS011;71549;42.686;23.300;2023-12-29T06:12:23;35.95;;;32.35;;
43216;SDS011;71549;42.686;23.300;2023-12-29T06:14:23;36.95;;;33.30;;
43216;SDS011;71549;42.686;23.300;2023-12-29T06:16:24;37.00;;;33.40;;
43216;SDS011;71549;42.686;23.300;2023-12-29T06:18:27;35.53;;;32.15;;
43216;SDS011;71549;42.686;23.300;2023-12-29T06:20:28;36.47;;;33.00;;
43216;SDS011;71549;42.686;23.300;2023-12-29T06:22:29;36.05;;;32.42;;
43216;SDS011;71549;42.686;23.300;2023-12-29T06:24:30;35.15;;;31.63;;
43216;SDS011;71549;42.686;23.300;2023-12-29T06:26:33;35.13;;;31.92;;
43216;SDS011;71549;42.686;23.300;2023-12-29T06:28:35;35.85;;;32.20;;
43216;SDS011;71549;42.686;23.300;2023-12-29T06:30:35;34.70;;;31.15;;
43216;SDS011;71549;42.686;23.300;2023-12-29T06:32:36;34.45;;;31.05;;
43216;SDS011;71549;42.686;23.300;2023-12-29T06:34:43;33.17;;;30.05;;
43216;SDS011;71549;42.686;23.300;2023-12-29T06:36:43;33.22;;;30.05;;
43216;SDS011;71549;42.686;23.300;2023-12-29T06:38:44;33.65;;;30.38;;
43216;SDS011;71549;42.686;23.300;2023-12-29T06:40:48;32.53;;;29.55;;
43216;SDS011;71549;42.686;23.300;2023-12-29T06:42:49;34.03;;;30.67;;
43216;SDS011;71549;42.686;23.300;2023-12-29T06:44:49;34.15;;;30.67;;
43216;SDS011;71549;42.686;23.300;2023-12-29T06:46:50;33.10;;;30.00;;
43216;SDS011;71549;42.686;23.300;2023-12-29T06:48:50;32.88;;;29.55;;
43216;SDS011;71549;42.686;23.300;2023-12-29T06:50:53;33.97;;;30.65;;
43216;SDS011;71549;42.686;23.300;2023-12-29T06:52:55;32.93;;;30.03;;
43216;SDS011;71549;42.686;23.300;2023-12-29T06:54:56;32.60;;;29.60;;
43216;SDS011;71549;42.686;23.300;2023-12-29T06:56:58;32.30;;;29.30;;
43216;SDS011;71549;42.686;23.300;2023-12-29T06:58:58;31.50;;;28.55;;
43216;SDS011;71549;42.686;23.300;2023-12-29T07:00:59;33.38;;;30.10;;
43216;SDS011;71549;42.686;23.300;2023-12-29T07:03:01;32.88;;;29.58;;
43216;SDS011;71549;42.686;23.300;2023-12-29T07:05:03;31.83;;;28.95;;
43216;SDS011;71549;42.686;23.300;2023-12-29T07:07:04;32.35;;;29.23;;
43216;SDS011;71549;42.686;23.300;2023-12-29T07:09:05;31.67;;;28.63;;
43216;SDS011;71549;42.686;23.300;2023-12-29T07:11:09;32.45;;;29.30;;
43216;SDS011;71549;42.686;23.300;2023-12-29T07:13:10;30.98;;;28.00;;
43216;SDS011;71549;42.686;23.300;2023-12-29T07:15:11;29.70;;;27.08;;
43216;SDS011;71549;42.686;23.300;2023-12-29T07:17:14;32.73;;;29.67;;
43216;SDS011;71549;42.686;23.300;2023-12-29T07:19:14;31.45;;;28.48;;
43216;SDS011;71549;42.686;23.300;2023-12-29T07:21:15;30.20;;;27.33;;
43216;SDS011;71549;42.686;23.300;2023-12-29T07:23:17;30.85;;;27.88;;
43216;SDS011;71549;42.686;23.300;2023-12-29T07:25:17;32.55;;;29.38;;
43216;SDS011;71549;42.686;23.300;2023-12-29T07:27:18;29.23;;;26.55;;
43216;SDS011;71549;42.686;23.300;2023-12-29T07:29:19;30.95;;;28.05;;
43216;SDS011;71549;42.686;23.300;2023-12-29T07:31:20;30.48;;;27.42;;
43216;SDS011;71549;42.686;23.300;2023-12-29T07:33:22;30.95;;;28.05;;
43216;SDS011;71549;42.686;23.300;2023-12-29T07:35:24;30.48;;;27.50;;
43216;SDS011;71549;42.686;23.300;2023-12-29T07:37:24;29.88;;;26.88;;
43216;SDS011;71549;42.686;23.300;2023-12-29T07:39:25;29.00;;;26.20;;
43216;SDS011;71549;42.686;23.300;2023-12-29T07:41:25;30.42;;;27.50;;
43216;SDS011;71549;42.686;23.300;2023-12-29T07:43:27;30.13;;;27.17;;
43216;SDS011;71549;42.686;23.300;2023-12-29T07:45:28;29.13;;;26.30;;
43216;SDS011;71549;42.686;23.300;2023-12-29T07:47:30;30.25;;;27.42;;
43216;SDS011;71549;42.686;23.300;2023-12-29T07:49:31;29.52;;;26.70;;
43216;SDS011;71549;42.686;23.300;2023-12-29T07:51:32;29.40;;;26.67;;
43216;SDS011;71549;42.686;23.300;2023-12-29T07:53:33;29.77;;;26.98;;
43216;SDS011;71549;42.686;23.300;2023-12-29T07:55:37;30.05;;;27.17;;
43216;SDS011;71549;42.686;23.300;2023-12-29T07:57:40;29.70;;;26.90;;
43216;SDS011;71549;42.686;23.300;2023-12-29T07:59:42;29.80;;;26.92;;
43216;SDS011;71549;42.686;23.300;2023-12-29T08:01:42;28.95;;;26.05;;
43216;SDS011;71549;42.686;23.300;2023-12-29T08:03:43;29.52;;;26.85;;
43216;SDS011;71549;42.686;23.300;2023-12-29T08:05:44;29.73;;;26.95;;
43216;SDS011;71549;42.686;23.300;2023-12-29T08:07:46;29.52;;;26.80;;
43216;SDS011;71549;42.686;23.300;2023-12-29T08:09:46;29.85;;;26.70;;
43216;SDS011;71549;42.686;23.300;2023-12-29T08:11:49;28.80;;;26.15;;
43216;SDS011;71549;42.686;23.300;2023-12-29T08:13:51;29.60;;;26.80;;
43216;SDS011;71549;42.686;23.300;2023-12-29T08:15:52;28.83;;;25.95;;
43216;SDS011;71549;42.686;23.300;2023-12-29T08:17:53;28.88;;;26.08;;
43216;SDS011;71549;42.686;23.300;2023-12-29T08:19:55;28.77;;;25.85;;
43216;SDS011;71549;42.686;23.300;2023-12-29T08:21:57;29.42;;;26.73;;
43216;SDS011;71549;42.686;23.300;2023-12-29T08:23:57;28.50;;;25.80;;
43216;SDS011;71549;42.686;23.300;2023-12-29T08:25:58;28.73;;;26.05;;
43216;SDS011;71549;42.686;23.300;2023-12-29T08:27:59;28.27;;;25.67;;
43216;SDS011;71549;42.686;23.300;2023-12-29T08:30:00;30.40;;;27.40;;
43216;SDS011;71549;42.686;23.300;2023-12-29T08:32:01;30.20;;;27.33;;
43216;SDS011;71549;42.686;23.300;2023-12-29T08:34:02;29.00;;;26.13;;
43216;SDS011;71549;42.686;23.300;2023-12-29T08:36:03;29.30;;;26.42;;
43216;SDS011;71549;42.686;23.300;2023-12-29T08:38:04;29.17;;;26.42;;
43216;SDS011;71549;42.686;23.300;2023-12-29T08:40:05;29.42;;;26.77;;
43216;SDS011;71549;42.686;23.300;2023-12-29T08:42:07;30.60;;;27.75;;
43216;SDS011;71549;42.686;23.300;2023-12-29T08:46:14;29.45;;;26.75;;
43216;SDS011;71549;42.686;23.300;2023-12-29T08:48:16;29.98;;;26.80;;
43216;SDS011;71549;42.686;23.300;2023-12-29T08:50:17;30.23;;;27.48;;
43216;SDS011;71549;42.686;23.300;2023-12-29T08:52:17;28.48;;;25.80;;
43216;SDS011;71549;42.686;23.300;2023-12-29T08:54:18;29.73;;;26.92;;
43216;SDS011;71549;42.686;23.300;2023-12-29T08:56:18;29.65;;;26.65;;
43216;SDS011;71549;42.686;23.300;2023-12-29T08:58:19;29.23;;;26.58;;
43216;SDS011;71549;42.686;23.300;2023-12-29T09:00:19;28.92;;;26.23;;
43216;SDS011;71549;42.686;23.300;2023-12-29T09:02:20;29.40;;;26.67;;
43216;SDS011;71549;42.686;23.300;2023-12-29T09:04:21;29.30;;;26.48;;
43216;SDS011;71549;42.686;23.300;2023-12-29T09:06:21;29.73;;;26.90;;
43216;SDS011;71549;42.686;23.300;2023-12-29T09:08:22;28.25;;;25.67;;
43216;SDS011;71549;42.686;23.300;2023-12-29T09:12:27;28.20;;;25.58;;
43216;SDS011;71549;42.686;23.300;2023-12-29T09:14:28;28.88;;;26.27;;
43216;SDS011;71549;42.686;23.300;2023-12-29T09:16:31;28.88;;;25.98;;
43216;SDS011;71549;42.686;23.300;2023-12-29T09:18:38;29.20;;;26.50;;
43216;SDS011;71549;42.686;23.300;2023-12-29T09:20:40;28.63;;;26.02;;
43216;SDS011;71549;42.686;23.300;2023-12-29T09:22:40;30.30;;;27.50;;
43216;SDS011;71549;42.686;23.300;2023-12-29T09:24:41;29.52;;;26.67;;
43216;SDS011;71549;42.686;23.300;2023-12-29T09:26:42;29.63;;;26.75;;
43216;SDS011;71549;42.686;23.300;2023-12-29T09:28:44;28.08;;;25.48;;
43216;SDS011;71549;42.686;23.300;2023-12-29T09:30:46;28.38;;;25.70;;
43216;SDS011;71549;42.686;23.300;2023-12-29T09:32:54;28.92;;;26.23;;
43216;SDS011;71549;42.686;23.300;2023-12-29T09:34:55;29.55;;;26.70;;
43216;SDS011;71549;42.686;23.300;2023-12-29T09:36:55;27.77;;;25.17;;
43216;SDS011;71549;42.686;23.300;2023-12-29T09:38:56;29.90;;;26.95;;
43216;SDS011;71549;42.686;23.300;2023-12-29T09:41:01;29.15;;;26.35;;
43216;SDS011;71549;42.686;23.300;2023-12-29T09:43:10;29.48;;;26.67;;
43216;SDS011;71549;42.686;23.300;2023-12-29T09:47:15;30.13;;;27.25;;
43216;SDS011;71549;42.686;23.300;2023-12-29T09:49:36;30.17;;;27.38;;
43216;SDS011;71549;42.686;23.300;2023-12-29T09:51:49;30.02;;;27.02;;
43216;SDS011;71549;42.686;23.300;2023-12-29T09:53:51;29.60;;;26.88;;
43216;SDS011;71549;42.686;23.300;2023-12-29T09:55:53;28.90;;;26.13;;
43216;SDS011;71549;42.686;23.300;2023-12-29T09:57:55;29.48;;;26.58;;
43216;SDS011;71549;42.686;23.300;2023-12-29T09:59:59;29.38;;;26.55;;
43216;SDS011;71549;42.686;23.300;2023-12-29T10:02:01;28.45;;;25.73;;
43216;SDS011;71549;42.686;23.300;2023-12-29T10:04:04;29.95;;;27.15;;
43216;SDS011;71549;42.686;23.300;2023-12-29T10:06:06;30.98;;;27.98;;
43216;SDS011;71549;42.686;23.300;2023-12-29T10:08:11;30.48;;;27.55;;
43216;SDS011;71549;42.686;23.300;2023-12-29T10:10:16;30.10;;;27.10;;
43216;SDS011;71549;42.686;23.300;2023-12-29T10:12:17;29.98;;;27.08;;
43216;SDS011;71549;42.686;23.300;2023-12-29T10:14:22;28.52;;;25.80;;
43216;SDS011;71549;42.686;23.300;2023-12-29T10:16:28;30.17;;;27.25;;
43216;SDS011;71549;42.686;23.300;2023-12-29T10:25:38;29.27;;;26.40;;
43216;SDS011;71549;42.686;23.300;2023-12-29T10:27:41;30.20;;;27.25;;
43216;SDS011;71549;42.686;23.300;2023-12-29T10:29:43;30.65;;;27.73;;
43216;SDS011;71549;42.686;23.300;2023-12-29T10:31:44;29.35;;;26.40;;
43216;SDS011;71549;42.686;23.300;2023-12-29T10:33:45;30.95;;;27.90;;
43216;SDS011;71549;42.686;23.300;2023-12-29T10:35:57;29.42;;;26.70;;
43216;SDS011;71549;42.686;23.300;2023-12-29T10:38:10;29.02;;;26.23;;
43216;SDS011;71549;42.686;23.300;2023-12-29T10:40:18;29.95;;;27.05;;
43216;SDS011;71549;42.686;23.300;2023-12-29T10:42:19;30.55;;;27.52;;
43216;SDS011;71549;42.686;23.300;2023-12-29T10:44:20;28.08;;;25.42;;
43216;SDS011;71549;42.686;23.300;2023-12-29T10:46:21;29.13;;;26.45;;
43216;SDS011;71549;42.686;23.300;2023-12-29T10:48:28;29.40;;;26.63;;
43216;SDS011;71549;42.686;23.300;2023-12-29T10:50:29;28.85;;;26.13;;
43216;SDS011;71549;42.686;23.300;2023-12-29T10:52:32;30.15;;;27.27;;
43216;SDS011;71549;42.686;23.300;2023-12-29T10:54:33;29.13;;;26.43;;
43216;SDS011;71549;42.686;23.300;2023-12-29T10:56:34;29.15;;;26.35;;
43216;SDS011;71549;42.686;23.300;2023-12-29T10:58:36;30.35;;;27.45;;
43216;SDS011;71549;42.686;23.300;2023-12-29T11:00:37;28.30;;;25.70;;
43216;SDS011;71549;42.686;23.300;2023-12-29T11:02:38;30.42;;;27.63;;
43216;SDS011;71549;42.686;23.300;2023-12-29T11:04:40;29.15;;;26.38;;
43216;SDS011;71549;42.686;23.300;2023-12-29T11:06:42;29.88;;;26.98;;
43216;SDS011;71549;42.686;23.300;2023-12-29T11:08:54;28.42;;;25.75;;
43216;SDS011;71549;42.686;23.300;2023-12-29T11:10:55;30.67;;;27.88;;
43216;SDS011;71549;42.686;23.300;2023-12-29T11:12:57;29.02;;;26.13;;
43216;SDS011;71549;42.686;23.300;2023-12-29T11:15:05;29.77;;;26.98;;
43216;SDS011;71549;42.686;23.300;2023-12-29T11:17:07;27.80;;;24.98;;
43216;SDS011;71549;42.686;23.300;2023-12-29T11:19:09;29.52;;;26.75;;
43216;SDS011;71549;42.686;23.300;2023-12-29T11:21:13;28.73;;;26.02;;
43216;SDS011;71549;42.686;23.300;2023-12-29T11:23:14;28.58;;;25.88;;
43216;SDS011;71549;42.686;23.300;2023-12-29T11:25:14;28.25;;;25.55;;
43216;SDS011;71549;42.686;23.300;2023-12-29T11:27:16;30.48;;;27.55;;
43216;SDS011;71549;42.686;23.300;2023-12-29T11:29:18;29.65;;;27.00;;
43216;SDS011;71549;42.686;23.300;2023-12-29T11:31:19;29.35;;;26.38;;
43216;SDS011;71549;42.686;23.300;2023-12-29T11:33:27;29.98;;;27.08;;
43216;SDS011;71549;42.686;23.300;2023-12-29T11:35:40;27.92;;;25.33;;
43216;SDS011;71549;42.686;23.300;2023-12-29T11:42:30;29.70;;;26.88;;
43216;SDS011;71549;42.686;23.300;2023-12-29T11:44:37;28.23;;;25.58;;
43216;SDS011;71549;42.686;23.300;2023-12-29T11:46:41;28.98;;;26.08;;
43216;SDS011;71549;42.686;23.300;2023-12-29T11:48:53;28.50;;;25.90;;
43216;SDS011;71549;42.686;23.300;2023-12-29T11:51:26;30.02;;;27.15;;
43216;SDS011;71549;42.686;23.300;2023-12-29T11:53:33;29.70;;;26.75;;
43216;SDS011;71549;42.686;23.300;2023-12-29T11:55:34;28.25;;;25.63;;
43216;SDS011;71549;42.686;23.300;2023-12-29T11:57:36;30.10;;;27.08;;
43216;SDS011;71549;42.686;23.300;2023-12-29T11:59:46;29.67;;;26.67;;
43216;SDS011;71549;42.686;23.300;2023-12-29T12:01:48;29.27;;;26.65;;
43216;SDS011;71549;42.686;23.300;2023-12-29T12:03:50;29.45;;;26.65;;
43216;SDS011;71549;42.686;23.300;2023-12-29T12:05:51;29.73;;;26.88;;
43216;SDS011;71549;42.686;23.300;2023-12-29T12:07:56;29.00;;;26.17;;
43216;SDS011;71549;42.686;23.300;2023-12-29T12:12:38;28.45;;;25.75;;
43216;SDS011;71549;42.686;23.300;2023-12-29T12:18:53;28.90;;;26.27;;
43216;SDS011;71549;42.686;23.300;2023-12-29T12:20:55;28.10;;;25.42;;